createdAt,value
2018-07-14T00:03:23.247Z,99880.02
2018-07-14T00:09:28.905Z,99878.22
2018-07-14T00:15:34.605Z,99877.80
2018-07-14T00:21:40.261Z,99864.41
2018-07-14T00:27:46.234Z,99871.00
2018-07-14T00:33:52.376Z,99863.93
2018-07-14T00:39:58.409Z,99869.24
2018-07-14T00:46:04.236Z,99865.47
2018-07-14T00:52:10.005Z,99876.10
2018-07-14T00:58:15.705Z,99879.53
2018-07-14T01:04:21.356Z,99870.89
2018-07-14T01:10:27.030Z,99865.71
2018-07-14T01:16:32.804Z,99870.94
2018-07-14T01:22:38.571Z,99873.44
2018-07-14T01:28:44.315Z,99878.36
2018-07-14T01:34:49.987Z,99879.11
2018-07-14T01:40:55.917Z,99882.52
2018-07-14T01:47:01.658Z,99872.96
2018-07-14T01:53:07.341Z,99872.25
2018-07-14T01:59:13.185Z,99876.30
2018-07-14T02:05:19.155Z,99878.31
2018-07-14T02:11:25.061Z,99875.81
2018-07-14T02:17:30.776Z,99881.62
2018-07-14T02:23:36.468Z,99880.47
2018-07-14T02:29:42.238Z,99883.58
2018-07-14T02:35:48.024Z,99871.44
2018-07-14T02:41:55.349Z,99880.75
2018-07-14T02:48:01.067Z,99886.84
2018-07-14T02:54:06.785Z,99885.15
2018-07-14T03:00:12.419Z,99887.38
2018-07-14T03:06:18.069Z,99886.03
2018-07-14T03:12:23.689Z,99885.39
2018-07-14T03:18:29.332Z,99885.52
2018-07-14T03:24:35.054Z,99888.69
2018-07-14T03:30:41.208Z,99888.11
2018-07-14T03:36:47.017Z,99886.33
2018-07-14T03:42:54.472Z,99881.14
2018-07-14T03:49:00.170Z,99882.03
2018-07-14T03:55:06.501Z,99885.70
2018-07-14T04:01:12.152Z,99887.48
2018-07-14T04:07:17.876Z,99883.77
2018-07-14T04:13:23.760Z,99884.13
2018-07-14T04:19:29.397Z,99885.72
2018-07-14T04:25:41.401Z,99881.22
2018-07-14T04:31:47.225Z,99894.39
2018-07-14T04:37:53.510Z,99894.81
2018-07-14T04:43:59.370Z,99891.39
2018-07-14T04:50:05.333Z,99893.41
2018-07-14T04:56:10.957Z,99902.31
2018-07-14T05:02:16.616Z,99898.48
2018-07-14T05:08:22.353Z,99902.17
2018-07-14T05:14:28.466Z,99904.36
2018-07-14T05:20:34.149Z,99903.44
2018-07-14T05:26:39.775Z,99909.87
2018-07-14T05:32:45.684Z,99903.92
2018-07-14T05:38:51.701Z,99905.22
2018-07-14T05:44:57.715Z,99917.09
2018-07-14T05:51:03.531Z,99916.55
2018-07-14T05:57:09.406Z,99921.80
2018-07-14T06:03:15.192Z,99931.38
2018-07-14T06:09:21.683Z,99928.03
2018-07-14T06:15:27.349Z,99937.88
2018-07-14T06:21:33.106Z,99937.95
2018-07-14T06:27:38.881Z,99931.50
2018-07-14T06:33:44.671Z,99940.36
2018-07-14T06:39:51.308Z,99944.33
2018-07-14T06:45:57.187Z,99945.20
2018-07-14T06:52:02.838Z,99951.09
2018-07-14T06:58:08.585Z,99947.28
2018-07-14T07:04:14.448Z,99946.55
2018-07-14T07:10:20.346Z,99938.16
2018-07-14T07:16:26.349Z,99941.47
2018-07-14T07:22:32.395Z,99932.56
2018-07-14T07:28:38.044Z,99928.47
2018-07-14T07:34:44.043Z,99941.06
2018-07-14T07:40:49.808Z,99940.49
2018-07-14T07:46:55.728Z,99929.19
2018-07-14T07:53:01.614Z,99923.41
2018-07-14T07:59:07.423Z,99921.41
2018-07-14T08:05:13.281Z,99918.20
2018-07-14T08:11:19.657Z,99923.22
2018-07-14T08:17:26.101Z,99916.92
2018-07-14T08:23:31.997Z,99923.38
2018-07-14T08:29:37.666Z,99914.84
2018-07-14T08:35:43.355Z,99914.70
2018-07-14T08:41:49.279Z,99907.06
2018-07-14T08:47:56.020Z,99903.79
2018-07-14T08:54:01.678Z,99910.48
2018-07-14T09:00:07.544Z,99897.28
2018-07-14T09:06:13.600Z,99890.73
2018-07-14T09:12:20.223Z,99888.09
2018-07-14T09:18:26.389Z,99887.95
2018-07-14T09:24:32.065Z,99882.18
2018-07-14T09:30:37.755Z,99885.45
2018-07-14T09:36:43.470Z,99876.00
2018-07-14T09:42:49.144Z,99867.89
2018-07-14T09:48:56.382Z,99858.59
2018-07-14T09:55:02.220Z,99856.19
2018-07-14T10:01:10.174Z,99848.55
2018-07-14T10:07:15.798Z,99844.91
2018-07-14T10:13:21.470Z,99847.53
2018-07-14T10:19:27.173Z,99842.55
2018-07-14T10:25:32.950Z,99831.89
2018-07-14T10:31:38.781Z,99827.55
2018-07-14T10:37:44.590Z,99825.87
2018-07-14T10:43:50.671Z,99821.20
2018-07-14T10:49:56.436Z,99817.55
2018-07-14T10:56:02.438Z,99805.20
2018-07-14T11:02:08.280Z,99802.89
2018-07-14T11:08:13.978Z,99797.20
2018-07-14T11:14:19.731Z,99784.26
2018-07-14T11:20:25.942Z,99779.25
2018-07-14T11:26:31.838Z,99777.05
2018-07-14T11:32:37.511Z,99768.12
2018-07-14T11:38:43.209Z,99762.45
2018-07-14T11:44:48.855Z,99767.91
2018-07-14T11:50:54.914Z,99754.43
2018-07-14T11:57:00.612Z,99754.50
2018-07-14T12:03:06.342Z,99748.66
2018-07-14T12:09:11.988Z,99737.08
2018-07-14T12:15:17.672Z,99739.05
2018-07-14T12:21:24.863Z,99726.63
2018-07-14T12:27:30.618Z,99720.41
2018-07-14T12:33:36.352Z,99717.87
2018-07-14T12:39:42.053Z,99706.95
2018-07-14T12:45:47.799Z,99705.95
2018-07-14T12:51:53.686Z,99690.78
2018-07-14T12:57:59.427Z,99684.02
2018-07-14T13:04:05.340Z,99687.19
2018-07-14T13:10:11.121Z,99679.52
2018-07-14T13:16:16.907Z,99678.62
2018-07-14T13:22:23.737Z,99675.28
2018-07-14T13:28:29.402Z,99659.97
2018-07-14T13:34:35.264Z,99647.91
2018-07-14T13:40:41.068Z,99648.86
2018-07-14T13:46:47.015Z,99647.61
2018-07-14T13:52:54.630Z,99643.53
2018-07-14T13:59:00.571Z,99643.48
2018-07-14T14:05:06.535Z,99632.83
2018-07-14T14:11:12.280Z,99624.72
2018-07-14T14:17:18.035Z,99616.85
2018-07-14T14:23:24.678Z,99613.31
2018-07-14T14:29:30.700Z,99602.17
2018-07-14T14:35:36.617Z,99600.39
2018-07-14T14:41:42.328Z,99596.09
2018-07-14T14:47:48.150Z,99600.19
2018-07-14T14:53:54.434Z,99595.28
2018-07-14T15:00:00.144Z,99597.58
2018-07-14T15:06:06.031Z,99598.88
2018-07-14T15:12:11.861Z,99594.12
2018-07-14T15:18:17.667Z,99582.91
2018-07-14T15:24:25.547Z,99582.55
2018-07-14T15:30:31.558Z,99583.56
2018-07-14T15:36:37.312Z,99587.92
2018-07-14T15:42:43.544Z,99585.28
2018-07-14T15:48:49.195Z,99588.20
2018-07-14T15:54:55.047Z,99583.34
2018-07-14T16:01:00.725Z,99585.70
2018-07-14T16:07:06.575Z,99587.61
2018-07-14T16:13:12.248Z,99581.34
2018-07-14T16:19:17.931Z,99584.27
2018-07-14T16:25:24.268Z,99579.64
2018-07-14T16:31:30.112Z,99572.92
2018-07-14T16:37:36.196Z,99581.08
2018-07-14T16:43:42.232Z,99577.45
2018-07-14T16:49:47.847Z,99568.45
2018-07-14T16:55:54.551Z,99570.84
2018-07-14T17:02:00.413Z,99565.92
2018-07-14T17:08:06.209Z,99569.08
2018-07-14T17:14:12.477Z,99570.02
2018-07-14T17:20:17.983Z,99576.34
2018-07-14T17:26:25.687Z,99574.16
2018-07-14T17:32:31.365Z,99571.06
2018-07-14T17:38:37.537Z,99574.08
2018-07-14T17:44:43.414Z,99578.34
2018-07-14T17:50:49.051Z,99579.83
2018-07-14T17:56:55.422Z,99581.98
2018-07-14T18:03:01.406Z,99583.76
2018-07-14T18:09:09.639Z,99575.88
2018-07-14T18:15:15.454Z,99584.73
2018-07-14T18:21:22.142Z,99578.78
2018-07-14T18:27:27.979Z,99581.63
2018-07-14T18:33:33.872Z,99583.56
2018-07-14T18:39:39.721Z,99580.66
2018-07-14T18:45:45.339Z,99587.88
2018-07-14T18:51:52.815Z,99593.19
2018-07-14T18:57:58.568Z,99603.66
2018-07-14T19:04:04.335Z,99605.60
2018-07-14T19:10:10.256Z,99607.02
2018-07-14T19:16:15.993Z,99624.73
2018-07-14T19:22:22.164Z,99635.37
2018-07-14T19:28:28.006Z,99639.27
2018-07-14T19:34:33.632Z,99639.48
2018-07-14T19:40:39.370Z,99649.30
2018-07-14T19:46:45.355Z,99650.84
2018-07-14T19:52:51.509Z,99656.48
2018-07-14T19:58:57.137Z,99658.05
2018-07-14T20:05:02.788Z,99657.59
2018-07-14T20:11:08.813Z,99653.83
2018-07-14T20:17:15.378Z,99654.53
2018-07-14T20:23:22.812Z,99644.79
2018-07-14T20:29:28.524Z,99649.70
2018-07-14T20:35:34.218Z,99659.80
2018-07-14T20:41:39.934Z,99665.27
2018-07-14T20:47:45.733Z,99675.83
2018-07-14T20:53:52.504Z,99673.11
2018-07-14T20:59:58.181Z,99673.36
2018-07-14T21:06:03.922Z,99678.00
2018-07-14T21:12:09.799Z,99680.44
2018-07-14T21:18:15.606Z,99682.03
2018-07-14T21:24:21.782Z,99683.78
2018-07-14T21:30:27.696Z,99685.88
2018-07-14T21:36:33.341Z,99684.19
2018-07-14T21:42:39.058Z,99693.42
2018-07-14T21:48:44.780Z,99695.09
2018-07-14T21:54:50.792Z,99688.52
2018-07-14T22:01:05.945Z,99701.05
2018-07-14T22:07:11.675Z,99698.84
2018-07-14T22:13:17.294Z,99696.63
2018-07-14T22:19:23.804Z,99693.83
2018-07-14T22:25:29.557Z,99698.42
2018-07-14T22:31:35.232Z,99698.30
2018-07-14T22:37:41.049Z,99703.78
2018-07-14T22:43:46.730Z,99703.27
2018-07-14T22:49:53.041Z,99705.61
2018-07-14T22:55:58.874Z,99712.75
2018-07-14T23:02:04.578Z,99711.16
2018-07-14T23:08:10.294Z,99707.84
2018-07-14T23:14:16.071Z,99717.30
2018-07-14T23:20:21.877Z,99709.95
2018-07-14T23:26:27.622Z,99714.16
2018-07-14T23:32:33.451Z,99704.53
2018-07-14T23:38:39.320Z,99706.64
2018-07-14T23:44:44.953Z,99710.61
2018-07-14T23:50:50.777Z,99710.41
2018-07-14T23:56:56.793Z,99709.13
